createdAt,value
2019-02-08T00:00:41.842Z,22.40
2019-02-08T00:03:45.554Z,22.40
2019-02-08T00:06:49.193Z,22.40
2019-02-08T00:09:53.797Z,22.39
2019-02-08T00:12:57.504Z,22.39
2019-02-08T00:16:01.146Z,22.39
2019-02-08T00:19:04.731Z,22.38
2019-02-08T00:22:08.699Z,22.38
2019-02-08T00:25:15.356Z,22.39
2019-02-08T00:28:19.171Z,22.36
2019-02-08T00:31:22.813Z,22.38
2019-02-08T00:34:26.423Z,22.38
2019-02-08T00:37:32.120Z,22.36
2019-02-08T00:40:35.744Z,22.36
2019-02-08T00:43:39.496Z,22.36
2019-02-08T00:46:43.102Z,22.37
2019-02-08T00:49:46.700Z,22.35
2019-02-08T00:52:50.530Z,22.35
2019-02-08T00:55:54.289Z,22.36
2019-02-08T00:58:58.018Z,22.35
2019-02-08T01:02:02.183Z,22.35
2019-02-08T01:05:06.742Z,22.34
2019-02-08T01:08:10.370Z,22.35
2019-02-08T01:11:15.342Z,22.36
2019-02-08T01:14:20.020Z,22.34
2019-02-08T01:17:23.603Z,22.35
2019-02-08T01:20:28.636Z,22.33
2019-02-08T01:23:32.332Z,22.33
2019-02-08T01:26:36.083Z,22.35
2019-02-08T01:29:39.761Z,22.33
2019-02-08T01:32:51.101Z,22.34
2019-02-08T01:35:58.642Z,22.34
2019-02-08T01:39:02.348Z,22.33
2019-02-08T01:42:05.961Z,22.32
2019-02-08T01:45:10.460Z,22.30
2019-02-08T01:48:14.097Z,22.31
2019-02-08T01:51:17.990Z,22.31
2019-02-08T01:54:21.557Z,22.31
2019-02-08T01:57:25.202Z,22.30
2019-02-08T02:00:39.525Z,22.29
2019-02-08T02:03:43.291Z,22.30
2019-02-08T02:06:46.986Z,22.29
2019-02-08T02:09:50.572Z,22.29
2019-02-08T02:12:54.172Z,22.30
2019-02-08T02:15:57.787Z,22.29
2019-02-08T02:19:01.373Z,22.30
2019-02-08T02:22:05.089Z,22.29
2019-02-08T02:25:10.118Z,22.28
2019-02-08T02:28:13.738Z,22.29
2019-02-08T02:31:17.347Z,22.29
2019-02-08T02:34:20.973Z,22.29
2019-02-08T02:37:25.658Z,22.29
2019-02-08T02:40:29.234Z,22.28
2019-02-08T02:43:32.879Z,22.30
2019-02-08T02:46:36.423Z,22.28
2019-02-08T02:49:40.174Z,22.30
2019-02-08T02:52:43.783Z,22.28
2019-02-08T02:55:47.385Z,22.29
2019-02-08T02:58:50.991Z,22.29
2019-02-08T03:01:54.675Z,22.28
2019-02-08T03:04:58.249Z,22.26
2019-02-08T03:08:02.921Z,22.27
2019-02-08T03:11:06.487Z,22.27
2019-02-08T03:14:10.162Z,22.29
2019-02-08T03:17:13.866Z,22.27
2019-02-08T03:20:18.042Z,22.27
2019-02-08T03:23:21.691Z,22.27
2019-02-08T03:26:26.390Z,22.26
2019-02-08T03:29:29.956Z,22.26
2019-02-08T03:32:33.622Z,22.26
2019-02-08T03:35:37.315Z,22.25
2019-02-08T03:38:41.049Z,22.26
2019-02-08T03:41:44.606Z,22.27
2019-02-08T03:44:48.226Z,22.26
2019-02-08T03:47:51.830Z,22.24
2019-02-08T03:50:55.424Z,22.25
2019-02-08T03:53:59.140Z,22.24
2019-02-08T03:57:02.748Z,22.25
2019-02-08T04:00:09.397Z,22.24
2019-02-08T04:03:12.978Z,22.24
2019-02-08T04:06:18.643Z,22.24
2019-02-08T04:09:22.308Z,22.25
2019-02-08T04:12:26.041Z,22.25
2019-02-08T04:15:29.628Z,22.24
2019-02-08T04:18:33.173Z,22.25
2019-02-08T04:21:36.789Z,22.25
2019-02-08T04:24:40.384Z,22.26
2019-02-08T04:27:44.054Z,22.25
2019-02-08T04:30:47.678Z,22.25
2019-02-08T04:33:51.396Z,22.24
2019-02-08T04:36:54.975Z,22.23
2019-02-08T04:39:58.649Z,22.24
2019-02-08T04:43:02.292Z,22.23
2019-02-08T04:46:05.986Z,22.22
2019-02-08T04:49:09.608Z,22.23
2019-02-08T04:52:13.204Z,22.23
2019-02-08T04:55:16.909Z,22.24
2019-02-08T04:58:20.596Z,22.22
2019-02-08T05:01:24.261Z,22.22
2019-02-08T05:04:27.829Z,22.21
2019-02-08T05:07:31.519Z,22.22
2019-02-08T05:10:35.302Z,22.22
2019-02-08T05:13:39.058Z,22.24
2019-02-08T05:16:42.628Z,22.22
2019-02-08T05:19:46.212Z,22.23
2019-02-08T05:22:49.841Z,22.22
2019-02-08T05:25:53.491Z,22.24
2019-02-08T05:28:59.101Z,22.24
2019-02-08T05:32:02.715Z,22.23
2019-02-08T05:35:06.368Z,22.23
2019-02-08T05:38:09.977Z,22.23
2019-02-08T05:41:13.727Z,22.24
2019-02-08T05:44:17.321Z,22.25
2019-02-08T05:47:20.939Z,22.23
2019-02-08T05:50:25.519Z,22.24
2019-02-08T05:53:29.183Z,22.23
2019-02-08T05:56:32.789Z,22.23
2019-02-08T05:59:36.358Z,22.23
2019-02-08T06:02:39.926Z,22.23
2019-02-08T06:05:43.676Z,22.21
2019-02-08T06:08:47.309Z,22.21
2019-02-08T06:11:50.967Z,22.22
2019-02-08T06:14:54.708Z,22.22
2019-02-08T06:17:58.269Z,22.21
2019-02-08T06:21:01.915Z,22.21
2019-02-08T06:24:05.599Z,22.22
2019-02-08T06:27:09.204Z,22.21
2019-02-08T06:30:21.094Z,22.23
2019-02-08T06:33:24.713Z,22.22
2019-02-08T06:36:28.304Z,22.21
2019-02-08T06:39:31.946Z,22.23
2019-02-08T06:42:35.568Z,22.21
2019-02-08T06:45:39.311Z,22.20
2019-02-08T06:48:42.840Z,22.20
2019-02-08T06:51:46.539Z,22.22
2019-02-08T06:54:50.237Z,22.20
2019-02-08T06:58:00.183Z,22.20
2019-02-08T07:01:22.927Z,22.22
2019-02-08T07:04:45.530Z,22.20
2019-02-08T07:08:08.328Z,22.21
2019-02-08T07:11:18.229Z,22.21
2019-02-08T07:14:40.545Z,22.21
2019-02-08T07:18:02.104Z,22.20
2019-02-08T07:21:24.039Z,22.21
2019-02-08T07:24:35.517Z,22.20
2019-02-08T07:27:48.529Z,22.20
2019-02-08T07:31:10.026Z,22.20
2019-02-08T07:34:27.615Z,22.20
2019-02-08T07:37:38.286Z,22.22
2019-02-08T07:40:53.553Z,22.21
2019-02-08T07:44:16.184Z,22.21
2019-02-08T07:47:29.926Z,22.20
2019-02-08T07:50:44.708Z,22.19
2019-02-08T07:54:10.472Z,22.20
2019-02-08T07:57:38.795Z,22.20
2019-02-08T08:00:57.676Z,22.21
2019-02-08T08:04:34.887Z,22.21
2019-02-08T08:07:50.226Z,22.23
2019-02-08T08:11:03.031Z,22.25
2019-02-08T08:14:15.975Z,22.26
2019-02-08T08:17:40.804Z,22.30
2019-02-08T08:21:09.770Z,22.31
2019-02-08T08:24:24.339Z,22.34
2019-02-08T08:27:52.547Z,22.35
2019-02-08T08:31:01.601Z,22.37
2019-02-08T08:34:11.950Z,22.36
2019-02-08T08:38:09.516Z,22.39
2019-02-08T08:41:51.742Z,22.39
2019-02-08T08:45:30.542Z,22.46
2019-02-08T08:48:57.316Z,22.48
2019-02-08T08:52:30.228Z,22.50
2019-02-08T08:56:14.834Z,22.52
2019-02-08T08:59:55.756Z,22.58
2019-02-08T09:03:39.070Z,22.63
2019-02-08T09:07:36.161Z,22.62
2019-02-08T09:11:19.984Z,22.71
2019-02-08T09:15:26.162Z,22.72
2019-02-08T09:19:00.061Z,22.72
2019-02-08T09:22:51.016Z,22.77
2019-02-08T09:26:36.267Z,22.77
2019-02-08T09:30:11.967Z,22.85
2019-02-08T09:34:21.589Z,22.86
2019-02-08T09:37:36.612Z,22.87
2019-02-08T09:41:08.380Z,22.88
2019-02-08T09:44:48.526Z,22.93
2019-02-08T09:48:16.904Z,22.98
2019-02-08T09:51:38.895Z,22.99
2019-02-08T09:55:21.441Z,22.98
2019-02-08T09:58:55.125Z,23.01
2019-02-08T10:02:40.068Z,22.95
2019-02-08T10:06:27.255Z,22.96
2019-02-08T10:10:13.819Z,22.94
2019-02-08T10:13:53.649Z,22.93
2019-02-08T10:17:56.960Z,22.93
2019-02-08T10:21:43.781Z,22.93
2019-02-08T10:25:31.243Z,22.90
2019-02-08T10:29:28.030Z,22.91
2019-02-08T10:33:09.252Z,22.92
2019-02-08T10:36:38.388Z,22.97
2019-02-08T10:40:20.600Z,23.00
2019-02-08T10:44:01.575Z,23.02
2019-02-08T10:48:10.843Z,23.05
2019-02-08T10:52:04.139Z,23.07
2019-02-08T10:55:59.031Z,23.08
2019-02-08T10:59:28.056Z,23.09
2019-02-08T11:03:18.581Z,23.12
2019-02-08T11:06:59.643Z,23.13
2019-02-08T11:10:43.478Z,23.15
2019-02-08T11:14:27.599Z,23.17
2019-02-08T11:18:24.666Z,23.18
2019-02-08T11:21:29.436Z,23.17
2019-02-08T11:24:33.122Z,23.19
2019-02-08T11:27:36.823Z,23.20
2019-02-08T11:30:40.507Z,23.20
2019-02-08T11:33:46.101Z,23.23
2019-02-08T11:36:49.890Z,23.24
2019-02-08T11:40:00.654Z,23.20
2019-02-08T11:43:05.590Z,23.22
2019-02-08T11:46:09.293Z,23.23
2019-02-08T11:49:12.994Z,23.26
2019-02-08T11:52:16.703Z,23.24
2019-02-08T11:55:20.416Z,23.28
2019-02-08T11:58:24.103Z,23.29
2019-02-08T12:01:29.478Z,23.32
2019-02-08T12:04:33.245Z,23.32
2019-02-08T12:07:37.968Z,23.33
2019-02-08T12:10:41.614Z,23.34
2019-02-08T12:13:45.326Z,23.38
2019-02-08T12:16:50.101Z,23.41
2019-02-08T12:19:53.824Z,23.42
2019-02-08T12:22:57.457Z,23.44
2019-02-08T12:26:01.167Z,23.46
2019-02-08T12:29:05.774Z,23.48
2019-02-08T12:32:09.384Z,23.50
2019-02-08T12:35:13.079Z,23.51
2019-02-08T12:38:17.568Z,23.55
2019-02-08T12:41:21.294Z,23.55
2019-02-08T12:44:25.042Z,23.58
2019-02-08T12:47:28.731Z,23.58
2019-02-08T12:50:32.469Z,23.58
2019-02-08T12:53:37.196Z,23.60
2019-02-08T12:56:45.613Z,23.61
2019-02-08T12:59:46.731Z,23.64
2019-02-08T13:02:51.351Z,23.64
2019-02-08T13:05:55.082Z,23.67
2019-02-08T13:08:58.771Z,23.68
2019-02-08T13:12:02.459Z,23.68
2019-02-08T13:15:08.483Z,23.70
2019-02-08T13:18:12.392Z,23.70
2019-02-08T13:21:17.286Z,23.70
2019-02-08T13:24:21.104Z,23.72
2019-02-08T13:27:25.957Z,23.71
2019-02-08T13:30:29.882Z,23.71
2019-02-08T13:33:33.536Z,23.71
2019-02-08T13:36:37.372Z,23.72
2019-02-08T13:39:41.035Z,23.72
2019-02-08T13:42:44.635Z,23.72
2019-02-08T13:45:48.348Z,23.72
2019-02-08T13:48:52.066Z,23.72
2019-02-08T13:51:55.790Z,23.71
2019-02-08T13:54:59.516Z,23.70
2019-02-08T13:58:03.162Z,23.71
2019-02-08T14:01:06.933Z,23.71
2019-02-08T14:04:11.875Z,23.74
2019-02-08T14:07:15.827Z,23.75
2019-02-08T14:10:19.954Z,23.76
2019-02-08T14:13:24.289Z,23.78
2019-02-08T14:16:29.154Z,23.78
2019-02-08T14:19:32.827Z,23.79
2019-02-08T14:22:36.521Z,23.80
2019-02-08T14:25:40.251Z,23.80
2019-02-08T14:28:46.111Z,23.77
2019-02-08T14:31:49.861Z,23.77
2019-02-08T14:34:53.582Z,23.76
2019-02-08T14:37:57.700Z,23.74
2019-02-08T14:41:01.466Z,23.73
2019-02-08T14:44:05.440Z,23.72
2019-02-08T14:47:09.009Z,23.70
2019-02-08T14:50:15.647Z,23.70
2019-02-08T14:53:19.337Z,23.68
2019-02-08T14:56:23.036Z,23.67
2019-02-08T14:59:26.720Z,23.64
2019-02-08T15:02:30.453Z,23.61
2019-02-08T15:05:34.111Z,23.61
2019-02-08T15:08:37.827Z,23.58
2019-02-08T15:11:41.526Z,23.56
2019-02-08T15:17:50.386Z,23.54
2019-02-08T15:20:53.865Z,23.54
2019-02-08T15:23:58.609Z,23.53
2019-02-08T15:27:02.522Z,23.51
2019-02-08T15:30:07.322Z,23.50
2019-02-08T15:33:10.948Z,23.49
2019-02-08T15:36:14.651Z,23.49
2019-02-08T15:39:18.388Z,23.47
2019-02-08T15:42:22.176Z,23.45
2019-02-08T15:48:37.973Z,23.50
2019-02-08T15:51:41.473Z,23.42
2019-02-08T15:54:45.150Z,23.42
2019-02-08T15:57:49.707Z,23.40
2019-02-08T16:00:53.330Z,23.38
2019-02-08T16:03:56.971Z,23.35
2019-02-08T16:07:00.634Z,23.34
2019-02-08T16:10:04.329Z,23.34
2019-02-08T16:13:08.870Z,23.31
2019-02-08T16:16:12.475Z,23.29
2019-02-08T16:19:16.047Z,23.28
2019-02-08T16:22:20.616Z,23.28
2019-02-08T16:25:25.858Z,23.27
2019-02-08T16:28:29.523Z,23.26
2019-02-08T16:31:33.119Z,23.26
2019-02-08T16:34:36.625Z,23.25
2019-02-08T16:37:40.136Z,23.24
2019-02-08T16:40:43.623Z,23.24
2019-02-08T16:43:47.227Z,23.23
2019-02-08T16:46:50.665Z,23.23
2019-02-08T16:49:54.150Z,23.23
2019-02-08T16:52:57.736Z,23.22
2019-02-08T16:56:01.348Z,23.22
2019-02-08T16:59:05.871Z,23.21
2019-02-08T17:02:09.399Z,23.20
2019-02-08T17:05:14.185Z,23.20
2019-02-08T17:08:17.801Z,23.19
2019-02-08T17:11:21.426Z,23.18
2019-02-08T17:14:25.003Z,23.18
2019-02-08T17:17:28.520Z,23.19
2019-02-08T17:20:36.855Z,23.18
2019-02-08T17:23:40.533Z,23.18
2019-02-08T17:26:45.273Z,23.18
2019-02-08T17:29:48.897Z,23.17
2019-02-08T17:32:52.384Z,23.17
2019-02-08T17:35:55.891Z,23.16
2019-02-08T17:39:00.384Z,23.18
2019-02-08T17:42:03.907Z,23.16
2019-02-08T17:45:10.203Z,23.16
2019-02-08T17:48:14.794Z,23.15
2019-02-08T17:51:19.517Z,23.13
2019-02-08T17:54:25.679Z,23.14
2019-02-08T17:57:28.356Z,23.14
2019-02-08T18:01:01.415Z,23.13
2019-02-08T18:04:05.340Z,23.13
2019-02-08T18:07:08.966Z,23.13
2019-02-08T18:10:15.699Z,23.13
2019-02-08T18:13:19.351Z,23.12
2019-02-08T18:16:22.966Z,23.11
2019-02-08T18:19:26.478Z,23.10
2019-02-08T18:22:30.092Z,23.10
2019-02-08T18:25:33.679Z,23.10
2019-02-08T18:28:37.145Z,23.10
2019-02-08T18:31:40.670Z,23.09
2019-02-08T18:34:44.166Z,23.10
2019-02-08T18:37:47.685Z,23.11
2019-02-08T18:40:52.213Z,23.12
2019-02-08T18:43:55.736Z,23.14
2019-02-08T18:46:59.209Z,23.15
2019-02-08T18:50:02.699Z,23.16
2019-02-08T18:53:08.243Z,23.16
2019-02-08T18:56:12.788Z,23.17
2019-02-08T18:59:16.277Z,23.19
2019-02-08T19:02:19.778Z,23.19
2019-02-08T19:05:23.284Z,23.19
2019-02-08T19:08:27.795Z,23.18
2019-02-08T19:11:32.536Z,23.17
2019-02-08T19:14:36.129Z,23.18
2019-02-08T19:17:39.589Z,23.17
2019-02-08T19:20:43.130Z,23.18
2019-02-08T19:23:46.740Z,23.19
2019-02-08T19:26:51.374Z,23.18
2019-02-08T19:29:54.974Z,23.18
2019-02-08T19:32:58.432Z,23.19
2019-02-08T19:36:02.006Z,23.18
2019-02-08T19:39:07.921Z,23.19
2019-02-08T19:42:11.446Z,23.22
2019-02-08T19:45:16.155Z,23.21
2019-02-08T19:48:20.804Z,23.22
2019-02-08T19:51:24.598Z,23.22
2019-02-08T19:54:28.126Z,23.23
2019-02-08T19:57:31.611Z,23.24
2019-02-08T20:00:36.431Z,23.24
2019-02-08T20:03:40.029Z,23.25
2019-02-08T20:06:43.556Z,23.28
2019-02-08T20:09:47.030Z,23.29
2019-02-08T20:12:50.538Z,23.28
2019-02-08T20:15:54.036Z,23.26
2019-02-08T20:18:57.657Z,23.24
2019-02-08T20:22:02.268Z,23.25
2019-02-08T20:25:09.393Z,23.25
2019-02-08T20:28:13.007Z,23.24
2019-02-08T20:31:16.558Z,23.25
2019-02-08T20:34:20.228Z,23.24
2019-02-08T20:37:23.856Z,23.25
2019-02-08T20:40:29.728Z,23.25
2019-02-08T20:43:33.332Z,23.24
2019-02-08T20:46:36.846Z,23.23
2019-02-08T20:49:40.320Z,23.23
2019-02-08T20:52:45.037Z,23.23
2019-02-08T20:55:48.569Z,23.23
2019-02-08T20:58:52.063Z,23.23
2019-02-08T21:01:55.559Z,23.22
2019-02-08T21:04:59.063Z,23.22
2019-02-08T21:08:02.500Z,23.23
2019-02-08T21:11:06.070Z,23.25
2019-02-08T21:14:09.569Z,23.25
2019-02-08T21:17:13.138Z,23.26
2019-02-08T21:20:16.770Z,23.27
2019-02-08T21:23:22.817Z,23.29
2019-02-08T21:26:26.649Z,23.30
2019-02-08T21:29:30.217Z,23.29
2019-02-08T21:32:34.681Z,23.33
2019-02-08T21:35:38.186Z,23.32
2019-02-08T21:38:41.673Z,23.31
2019-02-08T21:41:45.168Z,23.30
2019-02-08T21:44:51.128Z,23.31
2019-02-08T21:47:55.729Z,23.30
2019-02-08T21:50:59.462Z,23.25
2019-02-08T21:54:03.113Z,23.22
2019-02-08T21:57:06.581Z,23.18
2019-02-08T22:00:17.216Z,23.18
2019-02-08T22:03:20.638Z,23.14
2019-02-08T22:06:24.235Z,23.12
2019-02-08T22:09:27.772Z,23.09
2019-02-08T22:12:31.258Z,23.08
2019-02-08T22:15:35.667Z,23.06
2019-02-08T22:18:39.173Z,23.03
2019-02-08T22:21:42.660Z,23.02
2019-02-08T22:24:46.186Z,23.01
2019-02-08T22:27:49.633Z,23.01
2019-02-08T22:30:55.156Z,22.98
2019-02-08T22:33:58.575Z,22.97
2019-02-08T22:37:02.113Z,22.95
2019-02-08T22:40:07.758Z,22.96
2019-02-08T22:43:11.445Z,22.94
2019-02-08T22:46:18.119Z,22.91
2019-02-08T22:49:21.656Z,22.91
2019-02-08T22:52:25.182Z,22.91
2019-02-08T22:55:30.275Z,22.89
2019-02-08T22:58:34.092Z,22.89
2019-02-08T23:01:40.069Z,22.86
2019-02-08T23:04:44.702Z,22.87
2019-02-08T23:07:48.181Z,22.86
2019-02-08T23:10:51.679Z,22.87
2019-02-08T23:13:55.189Z,22.84
2019-02-08T23:16:58.696Z,22.82
2019-02-08T23:20:02.185Z,22.82
2019-02-08T23:23:07.752Z,22.81
2019-02-08T23:26:11.257Z,22.80
2019-02-08T23:29:15.772Z,22.79
2019-02-08T23:32:19.250Z,22.80
2019-02-08T23:35:22.779Z,22.79
2019-02-08T23:38:26.261Z,22.77
2019-02-08T23:41:29.697Z,22.76
2019-02-08T23:44:33.161Z,22.75
2019-02-08T23:47:36.787Z,22.74
2019-02-08T23:50:40.225Z,22.74
2019-02-08T23:53:43.773Z,22.74
2019-02-08T23:56:47.269Z,22.75
2019-02-08T23:59:50.777Z,22.72
